Time;durP1;ratioP1;P1;durP2;ratioP2;P2;SDS_P1;SDS_P2;PMS_P1;PMS_P2;Temp;Humidity;BMP_temperature;BMP_pressure;BME280_temperature;BME280_humidity;BME280_pressure;Samples;Min_cycle;Max_cycle;Signal;HPM_P1;HPM_P2
2022/01/05 00:02:18;;;;;;;;;;;3.30;99.90;;;;;;4932105;28;19921;-80
2022/01/05 00:04:44;;;;;;;;;;;3.30;99.90;;;;;;4953261;28;20284;-79
2022/01/05 00:07:12;;;;;;;;;;;3.30;99.90;;;;;;4949094;28;19918;-79
2022/01/05 00:09:38;;;;;;;;;;;3.20;99.90;;;;;;4947492;28;19929;-78
2022/01/05 00:12:04;;;;;;;;;;;3.20;99.90;;;;;;4929121;28;19933;-79
2022/01/05 00:14:31;;;;;;;;;;;3.20;99.90;;;;;;4930237;28;19940;-78
2022/01/05 00:16:57;;;;;;;;;;;3.10;99.90;;;;;;4948115;28;19922;-79
2022/01/05 00:19:23;;;;;;;;;;;3.10;99.90;;;;;;4931920;28;19918;-79
2022/01/05 00:21:49;;;;;;;;;;;3.10;99.90;;;;;;4960741;28;19918;-79
2022/01/05 00:24:16;;;;;;;;;;;3.00;99.90;;;;;;4947127;28;19918;-79
2022/01/05 00:26:42;;;;;;;;;;;3.00;99.90;;;;;;4944882;28;19922;-79
2022/01/05 00:29:08;;;;;;;;;;;3.00;99.90;;;;;;4962947;28;19921;-79
2022/01/05 00:31:34;;;;;;;;;;;3.00;99.90;;;;;;4945203;28;19933;-79
2022/01/05 00:34:01;;;;;;;;;;;3.00;99.90;;;;;;4931920;28;19945;-79
2022/01/05 00:36:27;;;;;;;;;;;2.90;99.90;;;;;;4949719;28;20578;-79
2022/01/05 00:38:53;;;;;;;;;;;2.90;99.90;;;;;;4949291;28;19936;-80
2022/01/05 00:41:19;;;;;;;;;;;2.90;99.90;;;;;;4964933;28;21254;-80
2022/01/05 00:43:46;;;;;;;;;;;2.90;99.90;;;;;;4960808;28;20388;-79
2022/01/05 00:46:12;;;;;;;;;;;2.90;99.90;;;;;;4949747;28;19914;-79
2022/01/05 00:48:38;;;;;;;;;;;2.80;99.90;;;;;;4949005;28;19917;-80
2022/01/05 00:51:06;;;;;;;;;;;2.80;99.90;;;;;;4918954;28;19926;-80
2022/01/05 00:53:33;;;;;;;;;;;2.80;99.90;;;;;;4947191;28;19910;-80
2022/01/05 00:55:59;;;;;;;;;;;2.80;99.90;;;;;;4936198;28;19914;-79
2022/01/05 00:58:25;;;;;;;;;;;2.70;99.90;;;;;;4964380;28;20354;-80
2022/01/05 01:00:53;;;;;;;;;;;2.70;99.90;;;;;;4945263;28;19915;-79
2022/01/05 01:03:19;;;;;;;;;;;2.70;99.90;;;;;;4961384;28;20376;-80
2022/01/05 01:05:46;;;;;;;;;;;2.60;99.90;;;;;;4947820;28;19914;-79
2022/01/05 01:08:12;;;;;;;;;;;2.70;99.90;;;;;;4948640;28;19925;-79
2022/01/05 01:10:38;;;;;;;;;;;2.70;99.90;;;;;;4963556;28;19918;-79
2022/01/05 01:13:05;;;;;;;;;;;2.80;99.90;;;;;;4945902;28;19918;-79
2022/01/05 01:15:31;;;;;;;;;;;2.80;99.90;;;;;;4947993;28;19921;-80
2022/01/05 01:17:58;;;;;;;;;;;2.80;99.90;;;;;;4932503;28;20269;-79
2022/01/05 01:20:24;;;;;;;;;;;2.80;99.90;;;;;;4946862;28;19925;-80
2022/01/05 01:22:50;;;;;;;;;;;2.70;99.90;;;;;;4944061;28;19921;-80
2022/01/05 01:25:17;;;;;;;;;;;2.70;99.90;;;;;;4931880;28;19922;-80
2022/01/05 01:27:44;;;;;;;;;;;2.70;99.90;;;;;;4932359;28;20408;-80
2022/01/05 01:30:10;;;;;;;;;;;2.60;99.90;;;;;;4931611;28;20392;-79
2022/01/05 01:32:37;;;;;;;;;;;2.60;99.90;;;;;;4942974;28;20332;-80
2022/01/05 01:35:04;;;;;;;;;;;2.60;99.90;;;;;;4947226;28;19937;-79
2022/01/05 01:37:30;;;;;;;;;;;2.60;99.90;;;;;;4962692;28;19921;-80
2022/01/05 01:39:57;;;;;;;;;;;2.60;99.90;;;;;;4945442;28;19925;-79
2022/01/05 01:42:23;;;;;;;;;;;2.50;99.90;;;;;;4947172;28;19914;-80
2022/01/05 01:44:49;;;;;;;;;;;2.50;99.90;;;;;;4946933;28;19917;-79
2022/01/05 01:47:15;;;;;;;;;;;2.50;99.90;;;;;;4946782;28;20591;-79
2022/01/05 01:49:42;;;;;;;;;;;2.50;99.90;;;;;;4931342;28;19921;-80
2022/01/05 01:52:08;;;;;;;;;;;2.50;99.90;;;;;;4924713;28;19918;-79
2022/01/05 01:54:35;;;;;;;;;;;2.50;99.90;;;;;;4944930;28;19910;-80
2022/01/05 01:57:01;;;;;;;;;;;2.50;99.90;;;;;;4959722;28;19921;-80
2022/01/05 01:59:28;;;;;;;;;;;2.50;99.90;;;;;;4945662;28;19917;-80
2022/01/05 02:01:55;;;;;;;;;;;2.50;99.90;;;;;;4960633;28;19918;-79
2022/01/05 02:04:21;;;;;;;;;;;2.50;99.90;;;;;;4948463;28;19914;-79
2022/01/05 02:06:48;;;;;;;;;;;2.40;99.90;;;;;;4919836;28;19929;-79
2022/01/05 02:09:14;;;;;;;;;;;2.50;99.90;;;;;;4948139;28;19914;-80
2022/01/05 02:11:42;;;;;;;;;;;2.40;99.90;;;;;;4932803;28;19930;-79
2022/01/05 02:14:08;;;;;;;;;;;2.40;99.90;;;;;;4946652;28;19933;-80
2022/01/05 02:16:38;;;;;;;;;;;2.40;99.90;;;;;;4919921;28;20364;-80
2022/01/05 02:19:05;;;;;;;;;;;2.40;99.90;;;;;;4936403;28;19910;-79
2022/01/05 02:21:36;;;;;;;;;;;2.40;99.90;;;;;;4946623;28;20349;-80
2022/01/05 02:24:03;;;;;;;;;;;2.40;99.90;;;;;;4946100;28;19910;-79
2022/01/05 02:26:30;;;;;;;;;;;2.30;99.90;;;;;;4964113;28;19918;-79
2022/01/05 02:28:56;;;;;;;;;;;2.30;99.90;;;;;;4932278;28;19933;-79
2022/01/05 02:31:22;;;;;;;;;;;2.30;99.90;;;;;;4947023;28;19924;-80
2022/01/05 02:33:49;;;;;;;;;;;2.30;99.90;;;;;;4933168;28;19922;-79
2022/01/05 02:36:19;;;;;;;;;;;2.30;99.90;;;;;;4918313;28;19925;-79
2022/01/05 02:38:49;;;;;;;;;;;2.40;99.90;;;;;;4964348;28;19917;-79
2022/01/05 02:41:16;;;;;;;;;;;2.40;99.90;;;;;;4948325;28;19933;-79
2022/01/05 02:43:42;;;;;;;;;;;2.40;99.90;;;;;;4929991;28;19910;-79
2022/01/05 02:46:10;;;;;;;;;;;2.40;99.90;;;;;;4947744;28;19910;-79
2022/01/05 02:48:36;;;;;;;;;;;2.40;99.90;;;;;;4947030;28;19910;-79
2022/01/05 02:51:03;;;;;;;;;;;2.30;99.90;;;;;;4962812;28;20305;-78
2022/01/05 02:53:29;;;;;;;;;;;2.40;99.90;;;;;;4932605;28;19925;-80
2022/01/05 02:55:55;;;;;;;;;;;2.30;99.90;;;;;;4948503;28;19910;-79
2022/01/05 02:58:25;;;;;;;;;;;2.30;99.90;;;;;;4932148;28;19918;-80
2022/01/05 03:00:51;;;;;;;;;;;2.30;99.90;;;;;;4932933;28;21259;-80
2022/01/05 03:03:18;;;;;;;;;;;2.40;99.90;;;;;;4928918;28;19922;-80
2022/01/05 03:05:44;;;;;;;;;;;2.30;99.90;;;;;;4931276;28;19918;-79
2022/01/05 03:08:10;;;;;;;;;;;2.30;99.90;;;;;;4933466;28;19922;-79
2022/01/05 03:10:36;;;;;;;;;;;2.30;99.90;;;;;;4931002;28;20273;-79
2022/01/05 03:13:03;;;;;;;;;;;2.40;99.90;;;;;;4960672;28;19922;-80
2022/01/05 03:15:29;;;;;;;;;;;2.40;99.90;;;;;;4947777;28;20353;-79
2022/01/05 03:17:55;;;;;;;;;;;2.40;99.90;;;;;;4947549;28;19918;-79
2022/01/05 03:20:22;;;;;;;;;;;2.40;99.90;;;;;;4945824;28;19925;-79
2022/01/05 03:22:49;;;;;;;;;;;2.40;99.90;;;;;;4930630;28;19925;-78
2022/01/05 03:25:16;;;;;;;;;;;2.40;99.90;;;;;;4930722;28;20408;-78
2022/01/05 03:27:46;;;;;;;;;;;2.40;99.90;;;;;;4946468;28;20366;-79
2022/01/05 03:30:17;;;;;;;;;;;2.40;99.90;;;;;;4947244;28;19918;-78
2022/01/05 03:33:09;;;;;;;;;;;2.40;99.90;;;;;;4944946;28;19918;-78
2022/01/05 03:35:40;;;;;;;;;;;2.40;99.90;;;;;;4961968;28;19914;-79
2022/01/05 03:38:07;;;;;;;;;;;2.40;99.90;;;;;;4946543;28;19914;-79
2022/01/05 03:40:34;;;;;;;;;;;2.40;99.90;;;;;;4945785;28;19914;-79
2022/01/05 03:43:01;;;;;;;;;;;2.40;99.90;;;;;;4943505;28;19914;-79
2022/01/05 03:45:27;;;;;;;;;;;2.40;99.90;;;;;;4932674;28;20389;-79
2022/01/05 03:47:54;;;;;;;;;;;2.40;99.90;;;;;;4929298;28;19922;-79
2022/01/05 03:50:20;;;;;;;;;;;2.40;99.90;;;;;;4943047;28;19910;-79
2022/01/05 03:52:46;;;;;;;;;;;2.40;99.90;;;;;;4957464;28;19917;-78
2022/01/05 03:55:12;;;;;;;;;;;2.30;99.90;;;;;;4929200;28;19933;-79
2022/01/05 03:57:39;;;;;;;;;;;2.40;99.90;;;;;;4928699;28;20643;-79
2022/01/05 04:00:05;;;;;;;;;;;2.30;99.90;;;;;;4931633;28;19914;-78
2022/01/05 04:02:39;;;;;;;;;;;2.30;99.90;;;;;;4944766;28;19910;-79
2022/01/05 04:05:06;;;;;;;;;;;2.40;99.90;;;;;;4944444;28;19918;-78
2022/01/05 04:07:32;;;;;;;;;;;2.30;99.90;;;;;;4931976;28;19923;-78
2022/01/05 04:09:58;;;;;;;;;;;2.30;99.90;;;;;;4946052;28;19906;-79
2022/01/05 04:12:25;;;;;;;;;;;2.30;99.90;;;;;;4929344;28;19926;-78
2022/01/05 04:14:51;;;;;;;;;;;2.30;99.90;;;;;;4963782;28;19921;-78
2022/01/05 04:17:17;;;;;;;;;;;2.30;99.90;;;;;;4932540;28;19925;-78
2022/01/05 04:19:43;;;;;;;;;;;2.30;99.90;;;;;;4933814;28;19921;-79
2022/01/05 04:22:10;;;;;;;;;;;2.30;99.90;;;;;;4961275;28;19925;-78
2022/01/05 04:24:36;;;;;;;;;;;2.30;99.90;;;;;;4963350;28;20334;-78
2022/01/05 04:27:02;;;;;;;;;;;2.30;99.90;;;;;;4935475;28;19921;-78
2022/01/05 04:29:29;;;;;;;;;;;2.30;99.90;;;;;;4949202;28;19918;-79
2022/01/05 04:31:55;;;;;;;;;;;2.30;99.90;;;;;;4933086;28;19937;-79
2022/01/05 04:34:21;;;;;;;;;;;2.30;99.90;;;;;;4950153;28;19910;-79
2022/01/05 04:36:47;;;;;;;;;;;2.30;99.90;;;;;;4938818;28;19926;-79
2022/01/05 04:39:14;;;;;;;;;;;2.40;99.90;;;;;;4950767;28;19922;-79
2022/01/05 04:41:40;;;;;;;;;;;2.40;99.90;;;;;;4931156;28;20706;-78
2022/01/05 04:44:06;;;;;;;;;;;2.40;99.90;;;;;;4937411;28;19914;-79
2022/01/05 04:46:32;;;;;;;;;;;2.40;99.90;;;;;;4963332;28;19906;-79
2022/01/05 04:48:59;;;;;;;;;;;2.50;99.90;;;;;;4942823;28;19914;-78
2022/01/05 04:51:25;;;;;;;;;;;2.60;99.90;;;;;;4967497;28;19914;-78
2022/01/05 04:53:51;;;;;;;;;;;2.70;99.90;;;;;;4968118;28;19914;-78
2022/01/05 04:56:18;;;;;;;;;;;2.80;99.90;;;;;;4947094;28;20363;-77
2022/01/05 04:58:44;;;;;;;;;;;2.80;99.90;;;;;;4962622;28;19914;-77
2022/01/05 05:01:10;;;;;;;;;;;2.90;99.90;;;;;;4946548;28;19921;-77
2022/01/05 05:03:37;;;;;;;;;;;3.00;99.90;;;;;;4960457;28;20233;-77
2022/01/05 05:06:04;;;;;;;;;;;3.00;99.90;;;;;;4965603;28;20249;-78
2022/01/05 05:08:30;;;;;;;;;;;2.90;99.90;;;;;;4932618;28;19914;-78
2022/01/05 05:10:56;;;;;;;;;;;2.90;99.90;;;;;;4931342;28;19933;-78
2022/01/05 05:13:23;;;;;;;;;;;2.80;99.90;;;;;;4929925;28;19929;-78
2022/01/05 05:15:49;;;;;;;;;;;2.80;99.90;;;;;;4946775;28;19922;-78
2022/01/05 05:18:15;;;;;;;;;;;2.80;99.90;;;;;;4947711;28;19919;-78
2022/01/05 05:20:41;;;;;;;;;;;2.80;99.90;;;;;;4932445;28;19906;-78
2022/01/05 05:23:07;;;;;;;;;;;2.80;99.90;;;;;;4929513;28;19921;-79
2022/01/05 05:25:34;;;;;;;;;;;2.80;99.90;;;;;;4931517;28;19922;-77
2022/01/05 05:28:00;;;;;;;;;;;2.80;99.90;;;;;;4946659;28;19917;-78
2022/01/05 05:30:27;;;;;;;;;;;2.90;99.90;;;;;;4962279;28;19936;-77
2022/01/05 05:32:55;;;;;;;;;;;2.90;99.90;;;;;;4961671;28;19914;-77
2022/01/05 05:35:22;;;;;;;;;;;3.00;99.90;;;;;;4962120;28;19925;-77
2022/01/05 05:37:48;;;;;;;;;;;3.00;99.90;;;;;;4947082;28;19914;-78
2022/01/05 05:40:14;;;;;;;;;;;3.10;99.90;;;;;;4961669;28;19918;-78
2022/01/05 05:42:40;;;;;;;;;;;3.10;99.90;;;;;;4960687;28;21146;-78
2022/01/05 05:45:07;;;;;;;;;;;3.20;99.90;;;;;;4946357;28;19918;-78
2022/01/05 05:47:33;;;;;;;;;;;3.20;99.90;;;;;;4947387;28;19911;-78
2022/01/05 05:50:00;;;;;;;;;;;3.30;99.90;;;;;;4961993;28;19922;-78
2022/01/05 05:52:26;;;;;;;;;;;3.30;99.90;;;;;;4960599;28;20638;-78
2022/01/05 05:54:52;;;;;;;;;;;3.40;99.90;;;;;;4930910;28;19906;-78
2022/01/05 05:57:19;;;;;;;;;;;3.40;99.90;;;;;;4964404;28;19914;-78
2022/01/05 05:59:45;;;;;;;;;;;3.50;99.90;;;;;;4962881;28;19941;-78
2022/01/05 06:02:11;;;;;;;;;;;3.50;99.90;;;;;;4927989;28;20847;-78
2022/01/05 06:04:37;;;;;;;;;;;3.60;99.90;;;;;;4929479;28;19937;-78
2022/01/05 06:07:04;;;;;;;;;;;3.60;99.90;;;;;;4951295;28;19924;-78
2022/01/05 06:09:30;;;;;;;;;;;3.60;99.90;;;;;;4955738;28;19930;-78
2022/01/05 06:11:56;;;;;;;;;;;3.60;99.90;;;;;;4940499;28;19933;-78
2022/01/05 06:14:23;;;;;;;;;;;3.70;99.90;;;;;;4961836;28;19917;-78
2022/01/05 06:16:49;;;;;;;;;;;3.70;99.90;;;;;;4953509;28;20388;-78
2022/01/05 06:19:15;;;;;;;;;;;3.70;99.90;;;;;;4930903;28;20763;-78
2022/01/05 06:21:44;;;;;;;;;;;3.70;99.90;;;;;;4959424;28;20269;-78
2022/01/05 06:24:11;;;;;;;;;;;3.70;99.90;;;;;;4961746;28;19918;-78
2022/01/05 06:26:37;;;;;;;;;;;3.70;99.90;;;;;;4931271;28;19910;-80
2022/01/05 06:29:04;;;;;;;;;;;3.70;99.90;;;;;;4934624;28;19914;-80
2022/01/05 06:31:30;;;;;;;;;;;3.70;99.90;;;;;;4942892;28;19945;-78
2022/01/05 06:33:56;;;;;;;;;;;3.80;99.90;;;;;;4960747;28;19921;-77
2022/01/05 06:36:22;;;;;;;;;;;3.80;99.90;;;;;;4961498;28;19933;-79
2022/01/05 06:38:49;;;;;;;;;;;3.90;99.90;;;;;;4963718;28;19910;-79
2022/01/05 06:41:15;;;;;;;;;;;3.90;99.90;;;;;;4932095;28;19918;-79
2022/01/05 06:43:41;;;;;;;;;;;3.90;99.90;;;;;;4961931;28;19922;-82
2022/01/05 06:46:08;;;;;;;;;;;3.90;99.90;;;;;;4963597;28;19917;-80
2022/01/05 06:48:34;;;;;;;;;;;4.00;99.90;;;;;;4928191;28;19913;-79
2022/01/05 06:51:00;;;;;;;;;;;4.00;99.90;;;;;;4947100;28;19921;-80
2022/01/05 06:53:27;;;;;;;;;;;4.00;99.90;;;;;;4961902;28;19918;-79
2022/01/05 06:55:54;;;;;;;;;;;4.00;99.90;;;;;;4947777;28;19918;-80
2022/01/05 06:58:20;;;;;;;;;;;4.10;99.90;;;;;;4962051;28;19933;-80
2022/01/05 07:00:46;;;;;;;;;;;4.10;99.90;;;;;;4945556;28;19914;-79
2022/01/05 07:03:12;;;;;;;;;;;4.10;99.90;;;;;;4929042;28;19925;-79
2022/01/05 07:05:39;;;;;;;;;;;4.20;99.90;;;;;;4945291;28;20377;-79
2022/01/05 07:08:06;;;;;;;;;;;4.20;99.90;;;;;;4929116;28;20384;-79
2022/01/05 07:10:32;;;;;;;;;;;4.10;99.90;;;;;;4946474;28;20285;-78
2022/01/05 07:12:58;;;;;;;;;;;4.10;99.90;;;;;;4943463;28;19950;-81
2022/01/05 07:15:25;;;;;;;;;;;4.10;99.90;;;;;;4930766;28;19914;-79
2022/01/05 07:17:51;;;;;;;;;;;4.10;99.90;;;;;;4946346;28;20388;-79
2022/01/05 07:20:18;;;;;;;;;;;4.10;99.90;;;;;;4946129;28;19925;-79
2022/01/05 07:22:44;;;;;;;;;;;4.10;99.90;;;;;;4943670;28;19925;-79
2022/01/05 07:25:10;;;;;;;;;;;4.10;99.90;;;;;;4943774;28;19910;-78
2022/01/05 07:27:37;;;;;;;;;;;4.10;99.90;;;;;;4946637;28;19922;-79
2022/01/05 07:30:04;;;;;;;;;;;4.20;99.90;;;;;;4931896;28;19921;-78
2022/01/05 07:32:31;;;;;;;;;;;4.20;99.90;;;;;;4927770;28;19925;-81
2022/01/05 07:34:57;;;;;;;;;;;4.20;99.90;;;;;;4946310;28;19929;-81
2022/01/05 07:37:24;;;;;;;;;;;4.20;99.90;;;;;;4947018;28;19925;-80
2022/01/05 07:39:50;;;;;;;;;;;4.20;99.90;;;;;;4947308;28;19922;-78
2022/01/05 07:42:16;;;;;;;;;;;4.30;99.90;;;;;;4962310;28;19926;-80
2022/01/05 07:44:43;;;;;;;;;;;4.30;99.90;;;;;;4948148;28;20420;-77
2022/01/05 07:47:10;;;;;;;;;;;4.30;99.90;;;;;;4980345;28;19914;-78
2022/01/05 07:49:37;;;;;;;;;;;4.30;99.90;;;;;;4965525;28;20400;-82
2022/01/05 07:52:05;;;;;;;;;;;4.40;99.90;;;;;;4946644;28;19933;-82
2022/01/05 07:54:32;;;;;;;;;;;4.40;99.90;;;;;;4933056;28;19918;-83
2022/01/05 07:56:59;;;;;;;;;;;4.40;99.90;;;;;;4950593;28;19918;-82
2022/01/05 07:59:25;;;;;;;;;;;4.40;99.90;;;;;;4950273;28;20277;-81
2022/01/05 08:01:51;;;;;;;;;;;4.40;99.90;;;;;;4964545;28;19990;-83
2022/01/05 08:04:19;;;;;;;;;;;4.50;99.90;;;;;;4935651;28;19925;-82
2022/01/05 08:06:45;;;;;;;;;;;4.50;99.90;;;;;;4934425;28;19917;-82
2022/01/05 08:09:11;;;;;;;;;;;4.50;99.90;;;;;;4936040;28;19929;-82
2022/01/05 08:11:38;;;;;;;;;;;4.50;99.90;;;;;;4949244;28;19930;-81
2022/01/05 08:14:04;;;;;;;;;;;4.60;99.90;;;;;;4935177;28;20261;-81
2022/01/05 08:16:30;;;;;;;;;;;4.50;99.90;;;;;;4937189;28;19918;-81
2022/01/05 08:18:57;;;;;;;;;;;4.50;99.90;;;;;;4965752;28;19917;-81
2022/01/05 08:21:23;;;;;;;;;;;4.50;99.90;;;;;;4952735;28;19917;-80
2022/01/05 08:23:50;;;;;;;;;;;4.50;99.90;;;;;;4947937;28;19933;-81
2022/01/05 08:26:16;;;;;;;;;;;4.50;99.90;;;;;;4935481;28;19937;-80
2022/01/05 08:28:43;;;;;;;;;;;4.50;99.90;;;;;;4950078;28;19918;-81
2022/01/05 08:31:09;;;;;;;;;;;4.50;99.90;;;;;;4934022;28;19914;-81
2022/01/05 08:33:35;;;;;;;;;;;4.40;99.90;;;;;;4932426;28;19921;-80
2022/01/05 08:36:02;;;;;;;;;;;4.40;99.90;;;;;;4965806;28;19921;-80
2022/01/05 08:38:29;;;;;;;;;;;4.40;99.90;;;;;;4948981;28;20300;-80
2022/01/05 08:40:55;;;;;;;;;;;4.40;99.90;;;;;;4965603;28;19925;-81
2022/01/05 08:43:21;;;;;;;;;;;4.40;99.90;;;;;;4953282;28;19933;-80
2022/01/05 08:45:49;;;;;;;;;;;4.40;99.90;;;;;;4935231;28;19918;-84
2022/01/05 08:48:15;;;;;;;;;;;4.40;99.90;;;;;;4936379;28;19910;-82
2022/01/05 08:50:42;;;;;;;;;;;4.40;99.90;;;;;;4948170;28;19921;-84
2022/01/05 08:53:09;;;;;;;;;;;4.50;99.90;;;;;;4965340;28;21044;-85
2022/01/05 08:55:37;;;;;;;;;;;4.50;99.90;;;;;;4980235;28;19918;-81
2022/01/05 08:58:04;;;;;;;;;;;4.50;99.90;;;;;;4967211;28;19921;-83
2022/01/05 09:00:32;;;;;;;;;;;4.50;99.90;;;;;;4954649;28;20289;-80
2022/01/05 09:02:59;;;;;;;;;;;4.50;99.90;;;;;;4947319;28;19914;-80
2022/01/05 09:05:25;;;;;;;;;;;4.50;99.90;;;;;;4935765;28;19945;-81
2022/01/05 09:07:52;;;;;;;;;;;4.40;99.90;;;;;;4964313;28;20371;-79
2022/01/05 09:10:18;;;;;;;;;;;4.40;99.90;;;;;;4932329;28;20258;-81
2022/01/05 09:12:44;;;;;;;;;;;4.40;99.90;;;;;;4946597;28;19941;-81
2022/01/05 09:15:10;;;;;;;;;;;4.40;99.90;;;;;;4964686;28;19953;-81
2022/01/05 09:17:37;;;;;;;;;;;4.30;99.90;;;;;;4964771;28;19917;-79
2022/01/05 09:20:04;;;;;;;;;;;4.30;99.90;;;;;;4964062;28;19917;-79
2022/01/05 09:22:30;;;;;;;;;;;4.30;99.90;;;;;;4949022;28;19918;-79
2022/01/05 09:24:56;;;;;;;;;;;4.40;99.90;;;;;;4949896;28;19925;-79
2022/01/05 09:27:23;;;;;;;;;;;4.40;99.90;;;;;;4935230;28;19914;-79
2022/01/05 09:29:49;;;;;;;;;;;4.40;99.90;;;;;;4920146;28;19929;-79
2022/01/05 09:32:16;;;;;;;;;;;4.40;99.90;;;;;;4946137;28;19914;-79
2022/01/05 09:34:42;;;;;;;;;;;4.40;99.90;;;;;;4945657;28;20281;-79
2022/01/05 09:37:32;;;;;;;;;;;4.40;99.90;;;;;;4946914;28;19921;-79
2022/01/05 09:42:43;;;;;;;;;;;4.50;99.90;;;;;;4947526;28;20269;-78
2022/01/05 09:45:15;;;;;;;;;;;4.50;99.90;;;;;;4950702;28;19914;-78
2022/01/05 09:47:46;;;;;;;;;;;4.50;99.90;;;;;;4929776;28;19913;-78
2022/01/05 09:50:13;;;;;;;;;;;4.60;99.90;;;;;;4957166;28;20392;-79
2022/01/05 09:52:42;;;;;;;;;;;4.50;99.90;;;;;;4939387;28;20286;-78
2022/01/05 09:55:09;;;;;;;;;;;4.60;99.90;;;;;;4943091;28;20384;-79
2022/01/05 09:57:37;;;;;;;;;;;4.60;99.90;;;;;;4945227;28;20353;-81
2022/01/05 10:00:04;;;;;;;;;;;4.60;99.90;;;;;;4942879;28;19917;-79
2022/01/05 10:02:38;;;;;;;;;;;4.60;99.90;;;;;;4956259;28;19910;-79
2022/01/05 10:05:07;;;;;;;;;;;4.60;99.90;;;;;;4943079;28;19918;-79
2022/01/05 10:07:34;;;;;;;;;;;4.60;99.90;;;;;;4959122;28;20043;-83
2022/01/05 10:10:00;;;;;;;;;;;4.60;99.90;;;;;;4932357;28;20294;-79
2022/01/05 10:12:26;;;;;;;;;;;4.60;99.90;;;;;;4941421;28;19926;-78
2022/01/05 10:14:53;;;;;;;;;;;4.70;99.90;;;;;;4944934;28;20976;-79
2022/01/05 10:17:24;;;;;;;;;;;4.80;99.90;;;;;;4933801;28;20293;-79
2022/01/05 10:20:05;;;;;;;;;;;4.80;99.90;;;;;;4960622;28;19914;-83
2022/01/05 10:22:36;;;;;;;;;;;4.80;99.90;;;;;;4940407;28;19914;-79
2022/01/05 10:25:06;;;;;;;;;;;4.80;99.90;;;;;;4942763;28;20290;-79
2022/01/05 10:27:33;;;;;;;;;;;4.80;99.90;;;;;;4943974;28;19906;-79
2022/01/05 10:30:04;;;;;;;;;;;4.90;99.90;;;;;;4958579;28;19921;-79
2022/01/05 10:32:32;;;;;;;;;;;4.90;99.90;;;;;;4957832;28;19925;-80
2022/01/05 10:35:04;;;;;;;;;;;4.90;99.90;;;;;;4942503;28;20590;-79
2022/01/05 10:37:31;;;;;;;;;;;5.00;99.90;;;;;;4928189;28;19917;-80
2022/01/05 10:40:07;;;;;;;;;;;5.10;99.90;;;;;;4944551;28;19910;-79
2022/01/05 10:42:33;;;;;;;;;;;5.10;99.90;;;;;;4943188;28;19925;-79
2022/01/05 10:45:02;;;;;;;;;;;5.10;99.90;;;;;;4941904;28;20273;-79
2022/01/05 10:47:29;;;;;;;;;;;5.10;99.90;;;;;;4950885;28;20376;-80
2022/01/05 10:49:55;;;;;;;;;;;5.10;99.90;;;;;;4938365;28;19922;-80
2022/01/05 10:52:26;;;;;;;;;;;5.10;99.90;;;;;;4928563;28;19918;-80
2022/01/05 10:54:53;;;;;;;;;;;5.10;99.90;;;;;;4948314;28;19914;-80
2022/01/05 10:57:21;;;;;;;;;;;5.10;99.90;;;;;;4935370;28;19914;-80
2022/01/05 10:59:48;;;;;;;;;;;5.20;99.90;;;;;;4921514;28;20234;-80
2022/01/05 11:02:35;;;;;;;;;;;5.20;99.90;;;;;;4930797;28;19937;-80
2022/01/05 11:05:01;;;;;;;;;;;5.20;99.90;;;;;;4959802;28;20281;-80
2022/01/05 11:07:29;;;;;;;;;;;5.30;99.90;;;;;;4941016;28;20311;-79
2022/01/05 11:09:57;;;;;;;;;;;5.30;99.90;;;;;;4925083;28;19921;-77
2022/01/05 11:12:43;;;;;;;;;;;5.30;99.90;;;;;;4939618;28;19921;-78
2022/01/05 11:15:16;;;;;;;;;;;5.30;99.90;;;;;;4957332;28;20300;-78
2022/01/05 11:18:02;;;;;;;;;;;5.40;99.90;;;;;;4929936;28;19910;-79
2022/01/05 11:20:28;;;;;;;;;;;5.40;99.90;;;;;;4945070;28;19910;-79
2022/01/05 11:22:55;;;;;;;;;;;5.60;99.90;;;;;;4944115;28;19918;-79
2022/01/05 11:25:21;;;;;;;;;;;5.70;99.90;;;;;;4946220;28;19933;-78
2022/01/05 11:27:48;;;;;;;;;;;5.70;99.90;;;;;;4931472;28;19918;-79
2022/01/05 11:30:14;;;;;;;;;;;5.80;99.90;;;;;;4945497;28;20826;-79
2022/01/05 11:32:41;;;;;;;;;;;5.80;99.90;;;;;;4927870;28;19929;-79
2022/01/05 11:35:08;;;;;;;;;;;5.90;99.90;;;;;;4946307;28;19913;-79
2022/01/05 11:37:35;;;;;;;;;;;6.00;99.90;;;;;;4945881;28;20385;-79
2022/01/05 11:40:03;;;;;;;;;;;6.10;99.90;;;;;;4946889;28;19917;-80
2022/01/05 11:42:34;;;;;;;;;;;6.00;99.90;;;;;;4945500;28;19933;-80
2022/01/05 11:45:01;;;;;;;;;;;6.00;99.90;;;;;;4951396;28;19925;-79
2022/01/05 11:47:29;;;;;;;;;;;6.00;99.90;;;;;;4950823;28;21256;-80
2022/01/05 11:50:15;;;;;;;;;;;6.00;99.90;;;;;;4950823;28;19917;-78
2022/01/05 11:52:55;;;;;;;;;;;6.00;99.90;;;;;;4964513;28;19914;-79
2022/01/05 11:55:22;;;;;;;;;;;6.00;99.90;;;;;;4966159;28;19918;-78
2022/01/05 11:58:07;;;;;;;;;;;6.00;99.90;;;;;;4950399;28;19929;-79
2022/01/05 12:00:33;;;;;;;;;;;6.00;99.90;;;;;;4937384;28;20006;-79
2022/01/05 12:03:00;;;;;;;;;;;6.00;99.90;;;;;;4948917;28;19910;-78
2022/01/05 12:05:26;;;;;;;;;;;6.00;99.90;;;;;;4967179;28;19985;-77
2022/01/05 12:07:53;;;;;;;;;;;6.00;99.90;;;;;;4949442;28;19918;-79
2022/01/05 12:10:21;;;;;;;;;;;5.90;99.90;;;;;;4949074;28;19918;-78
2022/01/05 12:12:52;;;;;;;;;;;6.00;99.90;;;;;;4947637;28;19940;-77
2022/01/05 12:15:38;;;;;;;;;;;6.00;99.90;;;;;;4949475;28;19918;-77
2022/01/05 12:18:05;;;;;;;;;;;6.00;99.90;;;;;;4951518;28;19914;-77
2022/01/05 12:20:35;;;;;;;;;;;6.10;99.90;;;;;;4944413;28;19924;-78
2022/01/05 12:23:16;;;;;;;;;;;6.10;99.90;;;;;;4960168;28;19918;-78
2022/01/05 12:26:00;;;;;;;;;;;6.10;99.90;;;;;;4964710;28;19918;-78
2022/01/05 12:28:28;;;;;;;;;;;6.10;99.90;;;;;;4949736;28;19917;-77
2022/01/05 12:30:54;;;;;;;;;;;6.10;99.90;;;;;;4963595;28;20688;-77
2022/01/05 12:33:20;;;;;;;;;;;6.10;99.90;;;;;;4947274;28;19922;-77
2022/01/05 12:35:53;;;;;;;;;;;6.20;99.90;;;;;;4963728;28;19910;-77
2022/01/05 12:38:38;;;;;;;;;;;6.30;99.90;;;;;;4948276;28;20345;-77
2022/01/05 12:41:23;;;;;;;;;;;6.30;99.90;;;;;;4934227;28;19917;-76
2022/01/05 12:43:50;;;;;;;;;;;6.40;99.90;;;;;;4944333;28;19941;-77
2022/01/05 12:46:32;;;;;;;;;;;6.40;99.90;;;;;;4934721;28;19953;-77
2022/01/05 12:48:58;;;;;;;;;;;6.30;99.90;;;;;;4966650;28;19913;-79
2022/01/05 12:51:42;;;;;;;;;;;6.40;99.90;;;;;;4946626;28;19914;-78
2022/01/05 12:54:13;;;;;;;;;;;6.40;99.90;;;;;;4945815;28;20354;-77
2022/01/05 12:56:42;;;;;;;;;;;6.50;99.90;;;;;;4962170;28;20498;-77
2022/01/05 12:59:09;;;;;;;;;;;6.50;99.90;;;;;;4961399;28;19913;-77
2022/01/05 13:01:36;;;;;;;;;;;6.50;99.90;;;;;;4959682;28;20292;-78
2022/01/05 13:04:08;;;;;;;;;;;6.40;99.90;;;;;;4932209;28;19922;-77
2022/01/05 13:06:35;;;;;;;;;;;6.40;99.90;;;;;;4965413;28;19910;-78
2022/01/05 13:09:05;;;;;;;;;;;6.40;99.90;;;;;;4947794;28;19917;-78
2022/01/05 13:11:40;;;;;;;;;;;6.40;99.90;;;;;;4929726;28;19925;-79
2022/01/05 13:14:15;;;;;;;;;;;6.50;99.90;;;;;;4946900;28;20349;-79
2022/01/05 13:16:42;;;;;;;;;;;6.50;99.90;;;;;;4949449;28;20262;-80
2022/01/05 13:19:15;;;;;;;;;;;6.70;99.90;;;;;;4945904;28;19924;-80
2022/01/05 13:21:46;;;;;;;;;;;6.70;99.90;;;;;;4927781;28;19914;-79
2022/01/05 13:24:12;;;;;;;;;;;6.70;99.90;;;;;;4929578;28;19917;-79
2022/01/05 13:27:01;;;;;;;;;;;6.70;99.90;;;;;;4944230;28;19918;-78
2022/01/05 13:29:28;;;;;;;;;;;6.70;99.90;;;;;;4944036;28;19910;-78
2022/01/05 13:31:55;;;;;;;;;;;6.70;99.90;;;;;;4942549;28;19921;-77
2022/01/05 13:34:29;;;;;;;;;;;6.70;99.90;;;;;;4944876;28;20463;-78
2022/01/05 13:36:55;;;;;;;;;;;6.70;99.90;;;;;;4929896;28;20681;-77
2022/01/05 13:39:39;;;;;;;;;;;6.70;99.90;;;;;;4942906;28;19913;-78
2022/01/05 13:42:06;;;;;;;;;;;6.70;99.90;;;;;;4928658;28;20388;-79
2022/01/05 13:44:36;;;;;;;;;;;6.70;99.90;;;;;;4961734;28;19914;-79
2022/01/05 13:47:04;;;;;;;;;;;6.70;99.90;;;;;;4965760;28;19921;-78
2022/01/05 13:49:30;;;;;;;;;;;6.60;99.90;;;;;;4946056;28;19918;-81
2022/01/05 13:52:02;;;;;;;;;;;6.60;99.90;;;;;;4944611;28;19918;-79
2022/01/05 13:54:29;;;;;;;;;;;6.60;99.90;;;;;;4944585;28;19922;-78
2022/01/05 13:56:55;;;;;;;;;;;6.60;99.90;;;;;;4962487;28;20656;-78
2022/01/05 13:59:21;;;;;;;;;;;6.60;99.90;;;;;;4961885;28;19917;-80
2022/01/05 14:01:58;;;;;;;;;;;6.60;99.90;;;;;;4942724;28;19922;-81
2022/01/05 14:04:24;;;;;;;;;;;6.60;99.90;;;;;;4949103;28;19926;-78
2022/01/05 14:06:57;;;;;;;;;;;6.60;99.90;;;;;;4963336;28;20448;-78
2022/01/05 14:09:29;;;;;;;;;;;6.60;99.90;;;;;;4943841;28;20342;-77
2022/01/05 14:11:58;;;;;;;;;;;6.60;99.90;;;;;;4943250;28;19925;-78
2022/01/05 14:14:25;;;;;;;;;;;6.70;99.90;;;;;;4945109;28;19921;-79
2022/01/05 14:16:52;;;;;;;;;;;6.60;99.90;;;;;;4961719;28;19917;-78
2022/01/05 14:19:26;;;;;;;;;;;6.60;99.90;;;;;;4944962;28;20273;-78
2022/01/05 14:22:01;;;;;;;;;;;6.60;99.90;;;;;;4941624;28;19913;-78
2022/01/05 14:24:36;;;;;;;;;;;6.50;99.90;;;;;;4960988;28;19929;-78
2022/01/05 14:27:03;;;;;;;;;;;6.50;99.90;;;;;;4946971;28;19918;-78
2022/01/05 14:29:30;;;;;;;;;;;6.40;99.90;;;;;;4947772;28;19918;-78
2022/01/05 14:32:04;;;;;;;;;;;6.40;99.90;;;;;;4928928;28;20501;-78
2022/01/05 14:34:37;;;;;;;;;;;6.30;99.90;;;;;;4959186;28;19921;-79
2022/01/05 14:37:05;;;;;;;;;;;6.40;99.90;;;;;;4928620;28;19910;-79
2022/01/05 14:39:47;;;;;;;;;;;6.50;99.90;;;;;;4928788;28;20372;-78